sensor_id;sensor_type;location;lat;lon;timestamp;pressure;altitude;pressure_sealevel;temperature;humidity
23616;BME280;11985;49.404;7.734;2024-02-21T00:02:50;98219.94;;;5.30;100.00
23616;BME280;11985;49.404;7.734;2024-02-21T00:07:53;98208.41;;;5.33;100.00
23616;BME280;11985;49.404;7.734;2024-02-21T00:12:56;98203.69;;;5.37;100.00
23616;BME280;11985;49.404;7.734;2024-02-21T00:17:57;98197.78;;;5.35;100.00
23616;BME280;11985;49.404;7.734;2024-02-21T00:22:59;98195.56;;;5.40;100.00
23616;BME280;11985;49.404;7.734;2024-02-21T00:28:03;98174.94;;;5.37;100.00
23616;BME280;11985;49.404;7.734;2024-02-21T00:33:08;98170.03;;;5.34;100.00
23616;BME280;11985;49.404;7.734;2024-02-21T00:38:10;98158.59;;;5.35;100.00
23616;BME280;11985;49.404;7.734;2024-02-21T00:43:13;98156.97;;;5.34;100.00
23616;BME280;11985;49.404;7.734;2024-02-21T00:48:15;98154.97;;;5.27;100.00
23616;BME280;11985;49.404;7.734;2024-02-21T00:53:17;98146.81;;;5.30;100.00
23616;BME280;11985;49.404;7.734;2024-02-21T00:58:20;98144.53;;;5.27;100.00
23616;BME280;11985;49.404;7.734;2024-02-21T01:03:21;98146.06;;;5.20;100.00
23616;BME280;11985;49.404;7.734;2024-02-21T01:08:25;98149.00;;;5.17;100.00
23616;BME280;11985;49.404;7.734;2024-02-21T01:13:28;98149.66;;;5.19;100.00
23616;BME280;11985;49.404;7.734;2024-02-21T01:18:30;98141.16;;;5.17;100.00
23616;BME280;11985;49.404;7.734;2024-02-21T01:23:33;98145.69;;;5.15;100.00
23616;BME280;11985;49.404;7.734;2024-02-21T01:28:36;98139.81;;;5.13;100.00
23616;BME280;11985;49.404;7.734;2024-02-21T01:33:37;98123.31;;;5.13;100.00
23616;BME280;11985;49.404;7.734;2024-02-21T01:38:39;98131.00;;;5.14;100.00
23616;BME280;11985;49.404;7.734;2024-02-21T01:43:43;98110.09;;;5.14;100.00
23616;BME280;11985;49.404;7.734;2024-02-21T01:48:45;98092.72;;;5.05;100.00
23616;BME280;11985;49.404;7.734;2024-02-21T01:53:47;98099.25;;;5.01;100.00
23616;BME280;11985;49.404;7.734;2024-02-21T01:58:51;98090.22;;;4.95;100.00
23616;BME280;11985;49.404;7.734;2024-02-21T02:03:53;98092.97;;;4.94;100.00
23616;BME280;11985;49.404;7.734;2024-02-21T02:08:57;98106.38;;;4.99;100.00
23616;BME280;11985;49.404;7.734;2024-02-21T02:14:02;98074.75;;;5.02;100.00
23616;BME280;11985;49.404;7.734;2024-02-21T02:19:04;98062.69;;;5.01;100.00
23616;BME280;11985;49.404;7.734;2024-02-21T02:24:08;98072.00;;;5.03;100.00
23616;BME280;11985;49.404;7.734;2024-02-21T02:29:09;98047.16;;;4.99;100.00
23616;BME280;11985;49.404;7.734;2024-02-21T02:34:11;98029.72;;;5.00;100.00
23616;BME280;11985;49.404;7.734;2024-02-21T02:39:14;98025.09;;;4.94;100.00
23616;BME280;11985;49.404;7.734;2024-02-21T02:44:15;98016.59;;;4.92;100.00
23616;BME280;11985;49.404;7.734;2024-02-21T02:49:18;98021.81;;;4.92;100.00
23616;BME280;11985;49.404;7.734;2024-02-21T02:54:21;98011.44;;;5.00;100.00
23616;BME280;11985;49.404;7.734;2024-02-21T02:59:22;98014.88;;;5.00;100.00
23616;BME280;11985;49.404;7.734;2024-02-21T03:04:24;98009.34;;;5.03;100.00
23616;BME280;11985;49.404;7.734;2024-02-21T03:09:27;97995.78;;;5.00;100.00
23616;BME280;11985;49.404;7.734;2024-02-21T03:14:29;98000.53;;;5.04;100.00
23616;BME280;11985;49.404;7.734;2024-02-21T03:19:31;97992.56;;;5.06;100.00
23616;BME280;11985;49.404;7.734;2024-02-21T03:24:33;97983.75;;;5.07;100.00
23616;BME280;11985;49.404;7.734;2024-02-21T03:29:36;97972.97;;;5.10;100.00
23616;BME280;11985;49.404;7.734;2024-02-21T03:34:38;97973.50;;;5.14;100.00
23616;BME280;11985;49.404;7.734;2024-02-21T03:39:41;97974.66;;;5.11;100.00
23616;BME280;11985;49.404;7.734;2024-02-21T03:44:43;97974.94;;;5.08;100.00
23616;BME280;11985;49.404;7.734;2024-02-21T03:49:45;97979.19;;;5.09;100.00
23616;BME280;11985;49.404;7.734;2024-02-21T03:54:47;97971.34;;;5.09;100.00
23616;BME280;11985;49.404;7.734;2024-02-21T03:59:50;97985.09;;;5.11;100.00
23616;BME280;11985;49.404;7.734;2024-02-21T04:04:52;97971.34;;;5.09;100.00
23616;BME280;11985;49.404;7.734;2024-02-21T04:09:55;97942.97;;;5.06;100.00
23616;BME280;11985;49.404;7.734;2024-02-21T04:14:56;97950.78;;;5.06;100.00
23616;BME280;11985;49.404;7.734;2024-02-21T04:20:02;97951.72;;;5.05;100.00
23616;BME280;11985;49.404;7.734;2024-02-21T04:25:07;97941.63;;;5.02;100.00
23616;BME280;11985;49.404;7.734;2024-02-21T04:30:10;97939.81;;;5.02;100.00
23616;BME280;11985;49.404;7.734;2024-02-21T04:35:11;97922.38;;;5.03;100.00
23616;BME280;11985;49.404;7.734;2024-02-21T04:40:14;97908.34;;;5.04;100.00
23616;BME280;11985;49.404;7.734;2024-02-21T04:45:18;97903.94;;;5.04;100.00
23616;BME280;11985;49.404;7.734;2024-02-21T04:50:20;97907.69;;;5.02;100.00
23616;BME280;11985;49.404;7.734;2024-02-21T04:55:24;97906.75;;;5.11;100.00
23616;BME280;11985;49.404;7.734;2024-02-21T05:00:27;97895.06;;;5.23;100.00
23616;BME280;11985;49.404;7.734;2024-02-21T05:05:29;97885.59;;;5.22;100.00
23616;BME280;11985;49.404;7.734;2024-02-21T05:10:33;97891.28;;;5.18;100.00
23616;BME280;11985;49.404;7.734;2024-02-21T05:15:36;97887.19;;;5.15;100.00
23616;BME280;11985;49.404;7.734;2024-02-21T05:20:37;97862.50;;;5.10;100.00
23616;BME280;11985;49.404;7.734;2024-02-21T05:25:42;97869.16;;;5.04;100.00
23616;BME280;11985;49.404;7.734;2024-02-21T05:30:44;97862.31;;;5.03;100.00
23616;BME280;11985;49.404;7.734;2024-02-21T05:35:47;97874.09;;;5.07;100.00
23616;BME280;11985;49.404;7.734;2024-02-21T05:40:50;97869.16;;;5.04;100.00
23616;BME280;11985;49.404;7.734;2024-02-21T05:45:52;97864.63;;;5.06;100.00
23616;BME280;11985;49.404;7.734;2024-02-21T05:50:56;97862.94;;;4.97;100.00
23616;BME280;11985;49.404;7.734;2024-02-21T05:55:59;97845.94;;;4.93;100.00
23616;BME280;11985;49.404;7.734;2024-02-21T06:01:03;97847.38;;;4.87;100.00
23616;BME280;11985;49.404;7.734;2024-02-21T06:06:07;97848.16;;;4.80;100.00
23616;BME280;11985;49.404;7.734;2024-02-21T06:11:11;97844.22;;;4.75;100.00
23616;BME280;11985;49.404;7.734;2024-02-21T06:16:14;97852.22;;;4.74;100.00
23616;BME280;11985;49.404;7.734;2024-02-21T06:21:15;97855.03;;;4.81;100.00
23616;BME280;11985;49.404;7.734;2024-02-21T06:26:20;97838.91;;;4.85;100.00
23616;BME280;11985;49.404;7.734;2024-02-21T06:31:22;97828.66;;;4.92;100.00
23616;BME280;11985;49.404;7.734;2024-02-21T06:36:24;97829.13;;;4.87;100.00
23616;BME280;11985;49.404;7.734;2024-02-21T06:41:28;97848.63;;;4.75;100.00
23616;BME280;11985;49.404;7.734;2024-02-21T06:46:37;97834.22;;;4.63;100.00
23616;BME280;11985;49.404;7.734;2024-02-21T06:51:43;97835.84;;;4.64;100.00
23616;BME280;11985;49.404;7.734;2024-02-21T06:56:46;97833.75;;;4.67;100.00
23616;BME280;11985;49.404;7.734;2024-02-21T07:01:51;97821.72;;;4.74;100.00
23616;BME280;11985;49.404;7.734;2024-02-21T07:06:53;97823.00;;;4.70;100.00
23616;BME280;11985;49.404;7.734;2024-02-21T07:11:57;97823.72;;;4.81;100.00
23616;BME280;11985;49.404;7.734;2024-02-21T07:16:59;97825.34;;;4.82;100.00
23616;BME280;11985;49.404;7.734;2024-02-21T07:22:01;97826.13;;;4.74;100.00
23616;BME280;11985;49.404;7.734;2024-02-21T07:27:04;97825.34;;;4.82;100.00
23616;BME280;11985;49.404;7.734;2024-02-21T07:32:06;97836.56;;;4.74;100.00
23616;BME280;11985;49.404;7.734;2024-02-21T07:37:09;97826.94;;;4.74;100.00
23616;BME280;11985;49.404;7.734;2024-02-21T07:42:12;97820.28;;;4.80;100.00
23616;BME280;11985;49.404;7.734;2024-02-21T07:47:13;97813.91;;;4.83;100.00
23616;BME280;11985;49.404;7.734;2024-02-21T07:52:17;97802.88;;;4.89;100.00
23616;BME280;11985;49.404;7.734;2024-02-21T07:57:21;97800.41;;;4.87;100.00
23616;BME280;11985;49.404;7.734;2024-02-21T08:02:25;97783.44;;;4.83;100.00
23616;BME280;11985;49.404;7.734;2024-02-21T08:07:27;97782.81;;;4.89;100.00
23616;BME280;11985;49.404;7.734;2024-02-21T08:12:31;97788.41;;;5.02;100.00
23616;BME280;11985;49.404;7.734;2024-02-21T08:17:33;97781.44;;;5.19;100.00
23616;BME280;11985;49.404;7.734;2024-02-21T08:22:37;97770.38;;;5.34;100.00
23616;BME280;11985;49.404;7.734;2024-02-21T08:27:40;97768.72;;;5.24;100.00
23616;BME280;11985;49.404;7.734;2024-02-21T08:32:42;97771.31;;;5.16;100.00
23616;BME280;11985;49.404;7.734;2024-02-21T08:37:46;97776.56;;;5.24;100.00
23616;BME280;11985;49.404;7.734;2024-02-21T08:42:49;97765.47;;;5.30;100.00
23616;BME280;11985;49.404;7.734;2024-02-21T08:47:51;97767.78;;;5.34;100.00
23616;BME280;11985;49.404;7.734;2024-02-21T08:52:53;97755.38;;;5.27;100.00
23616;BME280;11985;49.404;7.734;2024-02-21T08:57:59;97745.91;;;5.43;100.00
23616;BME280;11985;49.404;7.734;2024-02-21T09:03:03;97735.63;;;5.57;100.00
23616;BME280;11985;49.404;7.734;2024-02-21T09:08:06;97726.66;;;5.68;100.00
23616;BME280;11985;49.404;7.734;2024-02-21T09:13:12;97719.13;;;5.81;100.00
23616;BME280;11985;49.404;7.734;2024-02-21T09:18:15;97713.28;;;5.96;100.00
23616;BME280;11985;49.404;7.734;2024-02-21T09:23:17;97709.66;;;6.13;100.00
23616;BME280;11985;49.404;7.734;2024-02-21T09:28:21;97703.13;;;6.09;100.00
23616;BME280;11985;49.404;7.734;2024-02-21T09:33:23;97703.75;;;6.19;100.00
23616;BME280;11985;49.404;7.734;2024-02-21T09:38:25;97703.75;;;6.27;100.00
23616;BME280;11985;49.404;7.734;2024-02-21T09:43:29;97679.00;;;6.38;100.00
23616;BME280;11985;49.404;7.734;2024-02-21T09:48:40;97673.06;;;6.52;100.00
23616;BME280;11985;49.404;7.734;2024-02-21T09:53:45;97662.09;;;6.57;100.00
23616;BME280;11985;49.404;7.734;2024-02-21T09:58:50;97655.38;;;6.63;100.00
23616;BME280;11985;49.404;7.734;2024-02-21T10:03:51;97661.41;;;6.63;100.00
23616;BME280;11985;49.404;7.734;2024-02-21T10:08:53;97661.72;;;6.68;100.00
23616;BME280;11985;49.404;7.734;2024-02-21T10:14:04;97656.22;;;6.86;100.00
23616;BME280;11985;49.404;7.734;2024-02-21T10:19:06;97650.06;;;7.02;100.00
23616;BME280;11985;49.404;7.734;2024-02-21T10:24:26;97642.50;;;7.07;100.00
23616;BME280;11985;49.404;7.734;2024-02-21T10:29:29;97619.53;;;7.17;100.00
23616;BME280;11985;49.404;7.734;2024-02-21T10:34:31;97620.69;;;7.14;100.00
23616;BME280;11985;49.404;7.734;2024-02-21T10:39:36;97615.91;;;7.18;100.00
23616;BME280;11985;49.404;7.734;2024-02-21T10:44:50;97612.06;;;7.06;100.00
23616;BME280;11985;49.404;7.734;2024-02-21T10:49:56;97597.22;;;6.98;100.00
23616;BME280;11985;49.404;7.734;2024-02-21T10:55:03;97591.84;;;7.00;100.00
23616;BME280;11985;49.404;7.734;2024-02-21T11:00:09;97593.09;;;7.04;100.00
23616;BME280;11985;49.404;7.734;2024-02-21T11:05:13;97594.91;;;7.03;100.00
23616;BME280;11985;49.404;7.734;2024-02-21T11:10:23;97587.38;;;7.23;100.00
23616;BME280;11985;49.404;7.734;2024-02-21T11:15:28;97575.69;;;7.49;100.00
23616;BME280;11985;49.404;7.734;2024-02-21T11:20:33;97568.31;;;7.67;100.00
23616;BME280;11985;49.404;7.734;2024-02-21T11:25:35;97561.41;;;7.66;100.00
23616;BME280;11985;49.404;7.734;2024-02-21T11:30:39;97558.91;;;7.58;100.00
23616;BME280;11985;49.404;7.734;2024-02-21T11:35:40;97549.97;;;7.67;100.00
23616;BME280;11985;49.404;7.734;2024-02-21T11:40:44;97536.13;;;7.73;100.00
23616;BME280;11985;49.404;7.734;2024-02-21T11:45:48;97523.84;;;7.88;100.00
23616;BME280;11985;49.404;7.734;2024-02-21T11:50:53;97514.03;;;7.82;100.00
23616;BME280;11985;49.404;7.734;2024-02-21T11:55:55;97506.84;;;7.84;100.00
23616;BME280;11985;49.404;7.734;2024-02-21T12:00:58;97487.00;;;7.97;100.00
23616;BME280;11985;49.404;7.734;2024-02-21T12:06:05;97489.41;;;8.13;100.00
23616;BME280;11985;49.404;7.734;2024-02-21T12:11:16;97480.09;;;8.10;100.00
23616;BME280;11985;49.404;7.734;2024-02-21T12:16:19;97459.94;;;8.11;100.00
23616;BME280;11985;49.404;7.734;2024-02-21T12:21:24;97440.94;;;8.09;100.00
23616;BME280;11985;49.404;7.734;2024-02-21T12:26:28;97427.56;;;8.04;100.00
23616;BME280;11985;49.404;7.734;2024-02-21T12:31:31;97419.19;;;8.15;100.00
23616;BME280;11985;49.404;7.734;2024-02-21T12:36:33;97401.84;;;8.14;100.00
23616;BME280;11985;49.404;7.734;2024-02-21T12:41:35;97385.75;;;8.17;100.00
23616;BME280;11985;49.404;7.734;2024-02-21T12:46:40;97370.47;;;8.27;100.00
23616;BME280;11985;49.404;7.734;2024-02-21T12:51:42;97346.63;;;8.43;100.00
23616;BME280;11985;49.404;7.734;2024-02-21T12:56:44;97349.25;;;8.43;100.00
23616;BME280;11985;49.404;7.734;2024-02-21T13:01:48;97346.44;;;8.45;100.00
23616;BME280;11985;49.404;7.734;2024-02-21T13:06:50;97336.72;;;8.39;100.00
23616;BME280;11985;49.404;7.734;2024-02-21T13:11:52;97325.28;;;8.32;100.00
23616;BME280;11985;49.404;7.734;2024-02-21T13:16:56;97310.34;;;8.32;100.00
23616;BME280;11985;49.404;7.734;2024-02-21T13:22:00;97305.13;;;8.32;100.00
23616;BME280;11985;49.404;7.734;2024-02-21T13:27:03;97280.69;;;8.32;100.00
23616;BME280;11985;49.404;7.734;2024-02-21T13:32:06;97280.97;;;8.37;100.00
23616;BME280;11985;49.404;7.734;2024-02-21T13:37:08;97262.03;;;8.41;100.00
23616;BME280;11985;49.404;7.734;2024-02-21T13:42:10;97253.59;;;8.53;100.00
23616;BME280;11985;49.404;7.734;2024-02-21T13:47:14;97251.81;;;8.60;100.00
23616;BME280;11985;49.404;7.734;2024-02-21T13:52:15;97239.47;;;8.54;100.00
23616;BME280;11985;49.404;7.734;2024-02-21T13:57:18;97223.72;;;8.54;100.00
23616;BME280;11985;49.404;7.734;2024-02-21T14:02:21;97207.81;;;8.55;100.00
23616;BME280;11985;49.404;7.734;2024-02-21T14:07:23;97208.41;;;8.57;100.00
23616;BME280;11985;49.404;7.734;2024-02-21T14:12:25;97184.25;;;8.75;100.00
23616;BME280;11985;49.404;7.734;2024-02-21T14:17:28;97193.91;;;8.61;100.00
23616;BME280;11985;49.404;7.734;2024-02-21T14:22:31;97182.38;;;8.56;100.00
23616;BME280;11985;49.404;7.734;2024-02-21T14:27:33;97167.25;;;8.64;100.00
23616;BME280;11985;49.404;7.734;2024-02-21T14:32:43;97159.38;;;8.64;100.00
23616;BME280;11985;49.404;7.734;2024-02-21T14:37:45;97129.31;;;8.67;100.00
23616;BME280;11985;49.404;7.734;2024-02-21T14:42:49;97126.91;;;8.79;100.00
23616;BME280;11985;49.404;7.734;2024-02-21T14:47:54;97119.22;;;8.77;100.00
23616;BME280;11985;49.404;7.734;2024-02-21T14:52:55;97091.16;;;8.84;100.00
23616;BME280;11985;49.404;7.734;2024-02-21T14:57:57;97088.97;;;9.01;100.00
23616;BME280;11985;49.404;7.734;2024-02-21T15:03:00;97107.78;;;9.18;100.00
23616;BME280;11985;49.404;7.734;2024-02-21T15:08:03;97104.94;;;9.06;100.00
23616;BME280;11985;49.404;7.734;2024-02-21T15:13:05;97109.97;;;8.94;100.00
23616;BME280;11985;49.404;7.734;2024-02-21T15:18:08;97102.28;;;8.86;100.00
23616;BME280;11985;49.404;7.734;2024-02-21T15:23:11;97079.00;;;8.77;100.00
23616;BME280;11985;49.404;7.734;2024-02-21T15:28:14;97064.69;;;8.79;100.00
23616;BME280;11985;49.404;7.734;2024-02-21T15:33:17;97033.97;;;8.73;100.00
23616;BME280;11985;49.404;7.734;2024-02-21T15:38:21;97022.69;;;8.79;100.00
23616;BME280;11985;49.404;7.734;2024-02-21T15:43:23;97032.75;;;8.69;100.00
23616;BME280;11985;49.404;7.734;2024-02-21T15:48:29;97031.72;;;8.57;100.00
23616;BME280;11985;49.404;7.734;2024-02-21T15:53:31;97014.53;;;8.54;100.00
23616;BME280;11985;49.404;7.734;2024-02-21T15:58:33;96999.22;;;8.71;100.00
23616;BME280;11985;49.404;7.734;2024-02-21T16:03:36;97001.47;;;8.74;100.00
23616;BME280;11985;49.404;7.734;2024-02-21T16:08:38;96993.16;;;8.64;100.00
23616;BME280;11985;49.404;7.734;2024-02-21T16:13:41;96980.25;;;8.62;100.00
23616;BME280;11985;49.404;7.734;2024-02-21T16:18:44;96978.59;;;8.48;100.00
23616;BME280;11985;49.404;7.734;2024-02-21T16:23:47;96963.66;;;8.42;100.00
23616;BME280;11985;49.404;7.734;2024-02-21T16:28:55;96965.41;;;8.28;100.00
23616;BME280;11985;49.404;7.734;2024-02-21T16:34:00;96944.22;;;8.23;100.00
23616;BME280;11985;49.404;7.734;2024-02-21T16:39:01;96936.09;;;8.11;100.00
23616;BME280;11985;49.404;7.734;2024-02-21T16:44:05;96925.53;;;7.91;100.00
23616;BME280;11985;49.404;7.734;2024-02-21T16:49:08;96931.97;;;7.82;100.00
23616;BME280;11985;49.404;7.734;2024-02-21T16:54:10;96915.41;;;7.75;100.00
23616;BME280;11985;49.404;7.734;2024-02-21T16:59:11;96899.66;;;7.68;100.00
23616;BME280;11985;49.404;7.734;2024-02-21T17:04:15;96889.78;;;7.77;100.00
23616;BME280;11985;49.404;7.734;2024-02-21T17:09:18;96892.84;;;7.81;100.00
23616;BME280;11985;49.404;7.734;2024-02-21T17:14:22;96878.28;;;7.72;100.00
23616;BME280;11985;49.404;7.734;2024-02-21T17:19:29;96883.53;;;7.72;100.00
23616;BME280;11985;49.404;7.734;2024-02-21T17:24:33;96883.50;;;7.65;100.00
23616;BME280;11985;49.404;7.734;2024-02-21T17:29:34;96860.50;;;7.60;100.00
23616;BME280;11985;49.404;7.734;2024-02-21T17:34:38;96848.78;;;7.50;100.00
23616;BME280;11985;49.404;7.734;2024-02-21T17:39:40;96843.13;;;7.46;100.00
23616;BME280;11985;49.404;7.734;2024-02-21T17:44:42;96843.09;;;7.33;100.00
23616;BME280;11985;49.404;7.734;2024-02-21T17:49:47;96850.13;;;7.32;100.00
23616;BME280;11985;49.404;7.734;2024-02-21T17:54:52;96849.50;;;7.30;100.00
23616;BME280;11985;49.404;7.734;2024-02-21T17:59:57;96838.03;;;7.31;100.00
23616;BME280;11985;49.404;7.734;2024-02-21T18:05:03;96841.44;;;7.32;100.00
23616;BME280;11985;49.404;7.734;2024-02-21T18:10:06;96835.44;;;7.38;100.00
23616;BME280;11985;49.404;7.734;2024-02-21T18:15:08;96819.78;;;7.58;100.00
23616;BME280;11985;49.404;7.734;2024-02-21T18:20:13;96829.91;;;7.67;100.00
23616;BME280;11985;49.404;7.734;2024-02-21T18:25:14;96822.63;;;7.63;100.00
23616;BME280;11985;49.404;7.734;2024-02-21T18:30:16;96825.03;;;7.58;100.00
23616;BME280;11985;49.404;7.734;2024-02-21T18:35:19;96818.56;;;7.54;100.00
23616;BME280;11985;49.404;7.734;2024-02-21T18:40:21;96814.13;;;7.54;100.00
23616;BME280;11985;49.404;7.734;2024-02-21T18:45:23;96804.03;;;7.51;100.00
23616;BME280;11985;49.404;7.734;2024-02-21T18:50:25;96794.38;;;7.52;100.00
23616;BME280;11985;49.404;7.734;2024-02-21T18:55:28;96781.88;;;7.54;100.00
23616;BME280;11985;49.404;7.734;2024-02-21T19:00:31;96771.78;;;7.51;100.00
23616;BME280;11985;49.404;7.734;2024-02-21T19:05:37;96760.09;;;7.53;100.00
23616;BME280;11985;49.404;7.734;2024-02-21T19:10:40;96761.31;;;7.57;100.00
23616;BME280;11985;49.404;7.734;2024-02-21T19:15:44;96757.53;;;7.73;100.00
23616;BME280;11985;49.404;7.734;2024-02-21T19:20:48;96752.50;;;7.78;100.00
23616;BME280;11985;49.404;7.734;2024-02-21T19:25:49;96742.38;;;7.75;100.00
23616;BME280;11985;49.404;7.734;2024-02-21T19:30:51;96727.47;;;7.69;100.00
23616;BME280;11985;49.404;7.734;2024-02-21T19:35:56;96718.16;;;7.60;100.00
23616;BME280;11985;49.404;7.734;2024-02-21T19:40:57;96706.06;;;7.46;100.00
23616;BME280;11985;49.404;7.734;2024-02-21T19:45:59;96705.81;;;7.27;100.00
23616;BME280;11985;49.404;7.734;2024-02-21T19:51:04;96697.94;;;7.14;100.00
23616;BME280;11985;49.404;7.734;2024-02-21T19:56:06;96684.19;;;6.99;100.00
23616;BME280;11985;49.404;7.734;2024-02-21T20:01:08;96670.63;;;6.75;100.00
23616;BME280;11985;49.404;7.734;2024-02-21T20:06:11;96650.25;;;6.57;100.00
23616;BME280;11985;49.404;7.734;2024-02-21T20:11:13;96640.47;;;6.38;100.00
23616;BME280;11985;49.404;7.734;2024-02-21T20:16:14;96618.69;;;6.24;100.00
23616;BME280;11985;49.404;7.734;2024-02-21T20:21:19;96623.91;;;6.18;100.00
23616;BME280;11985;49.404;7.734;2024-02-21T20:26:23;96619.72;;;6.23;100.00
23616;BME280;11985;49.404;7.734;2024-02-21T20:31:26;96612.25;;;6.27;100.00
23616;BME280;11985;49.404;7.734;2024-02-21T20:36:28;96598.94;;;6.15;100.00
23616;BME280;11985;49.404;7.734;2024-02-21T20:41:31;96586.03;;;6.07;100.00
23616;BME280;11985;49.404;7.734;2024-02-21T20:46:33;96589.19;;;5.96;100.00
23616;BME280;11985;49.404;7.734;2024-02-21T20:51:36;96571.66;;;5.90;100.00
23616;BME280;11985;49.404;7.734;2024-02-21T20:56:38;96575.44;;;5.87;100.00
23616;BME280;11985;49.404;7.734;2024-02-21T21:01:39;96554.91;;;5.77;100.00
23616;BME280;11985;49.404;7.734;2024-02-21T21:06:42;96552.47;;;5.76;100.00
23616;BME280;11985;49.404;7.734;2024-02-21T21:11:46;96540.59;;;5.73;100.00
23616;BME280;11985;49.404;7.734;2024-02-21T21:16:51;96530.72;;;5.69;100.00
23616;BME280;11985;49.404;7.734;2024-02-21T21:21:54;96520.28;;;5.69;100.00
23616;BME280;11985;49.404;7.734;2024-02-21T21:26:59;96519.25;;;5.63;100.00
23616;BME280;11985;49.404;7.734;2024-02-21T21:32:02;96510.41;;;5.64;100.00
23616;BME280;11985;49.404;7.734;2024-02-21T21:37:06;96499.94;;;5.64;100.00
23616;BME280;11985;49.404;7.734;2024-02-21T21:42:07;96484.53;;;5.76;100.00
23616;BME280;11985;49.404;7.734;2024-02-21T21:47:09;96486.19;;;5.83;100.00
23616;BME280;11985;49.404;7.734;2024-02-21T21:52:13;96473.53;;;5.87;100.00
23616;BME280;11985;49.404;7.734;2024-02-21T21:57:15;96480.56;;;5.87;100.00
23616;BME280;11985;49.404;7.734;2024-02-21T22:02:16;96469.28;;;5.79;100.00
23616;BME280;11985;49.404;7.734;2024-02-21T22:07:19;96467.25;;;5.81;100.00
23616;BME280;11985;49.404;7.734;2024-02-21T22:12:22;96456.81;;;5.81;100.00
23616;BME280;11985;49.404;7.734;2024-02-21T22:17:23;96447.78;;;5.77;100.00
23616;BME280;11985;49.404;7.734;2024-02-21T22:22:26;96438.28;;;5.76;100.00
23616;BME280;11985;49.404;7.734;2024-02-21T22:27:29;96431.09;;;5.78;100.00
23616;BME280;11985;49.404;7.734;2024-02-21T22:32:31;96432.69;;;5.79;100.00
23616;BME280;11985;49.404;7.734;2024-02-21T22:37:34;96419.44;;;5.81;100.00
23616;BME280;11985;49.404;7.734;2024-02-21T22:42:35;96411.38;;;5.82;100.00
23616;BME280;11985;49.404;7.734;2024-02-21T22:47:37;96398.94;;;5.85;100.00
23616;BME280;11985;49.404;7.734;2024-02-21T22:52:39;96396.53;;;5.90;100.00
23616;BME280;11985;49.404;7.734;2024-02-21T22:57:42;96383.72;;;5.95;100.00
23616;BME280;11985;49.404;7.734;2024-02-21T23:02:43;96388.53;;;5.98;100.00
23616;BME280;11985;49.404;7.734;2024-02-21T23:07:47;96374.09;;;6.02;100.00
23616;BME280;11985;49.404;7.734;2024-02-21T23:12:50;96374.69;;;6.04;100.00
23616;BME280;11985;49.404;7.734;2024-02-21T23:17:52;96361.22;;;6.07;100.00
23616;BME280;11985;49.404;7.734;2024-02-21T23:22:55;96337.91;;;6.12;100.00
23616;BME280;11985;49.404;7.734;2024-02-21T23:27:56;96323.03;;;6.13;100.00
23616;BME280;11985;49.404;7.734;2024-02-21T23:32:58;96318.19;;;6.16;100.00
23616;BME280;11985;49.404;7.734;2024-02-21T23:38:01;96319.19;;;6.22;100.00
23616;BME280;11985;49.404;7.734;2024-02-21T23:43:04;96318.19;;;6.29;100.00
23616;BME280;11985;49.404;7.734;2024-02-21T23:48:07;96316.16;;;6.31;100.00
23616;BME280;11985;49.404;7.734;2024-02-21T23:53:10;96309.53;;;6.35;100.00
23616;BME280;11985;49.404;7.734;2024-02-21T23:58:12;96306.53;;;6.39;100.00
